This is the latest recevied weather packets stored in our database for station/object DL5DI-H. If no packets are shown the sender has not sent any weather packets the latest 10 day(s).
| Time | Temp. | Humidity | Pressure | Rain* | Wind** | Luminosity | Snow |
|---|---|---|---|---|---|---|---|
| 1777918201 | 16.67° C | 84% | 1013.5 hPa | 0 mm | - | - | - |
| 1777915801 | 16.67° C | 82% | 1013.7 hPa | 0 mm | - | - | - |
| 1777911605 | 17.22° C | 82% | 1013.8 hPa | 0.25 mm | - | - | - |
| 1777911001 | 17.22° C | 79% | 1013.7 hPa | 0.25 mm | - | - | - |
| 1777909200 | 18.33° C | 72% | 1014.1 hPa | 0.25 mm | - | - | - |
| 1777908005 | 18.33° C | 73% | 1014.2 hPa | 0.25 mm | - | - | - |
| 1777906205 | 18.89° C | 65% | 1013.8 hPa | 0 mm | - | - | - |
| 1777905600 | 18.89° C | 64% | 1013.8 hPa | 0 mm | - | - | - |
| 1777903805 | 18.89° C | 66% | 1014 hPa | 0.25 mm | - | - | - |
| 1777903205 | 19.44° C | 66% | 1014 hPa | 0.25 mm | - | - | - |
| 1777900800 | 20.56° C | 64% | 1014 hPa | 0 mm | - | - | - |
| 1777900201 | 21.11° C | 57% | 1013.9 hPa | 0 mm | - | - | - |
| 1777898401 | 22.22° C | 53% | 1013.5 hPa | 0 mm | - | - | - |
| 1777897804 | 22.22° C | 52% | 1013.3 hPa | 0 mm | - | - | - |
| 1777897205 | 22.22° C | 52% | 1013.3 hPa | 0 mm | - | - | - |
| 1777896605 | 22.78° C | 52% | 1013.3 hPa | 0 mm | - | - | - |
| 1777896000 | 22.78° C | 53% | 1013.3 hPa | 0 mm | - | - | - |
| 1777894204 | 22.22° C | 55% | 1013.4 hPa | 0 mm | - | - | - |
| 1777893601 | 22.22° C | 55% | 1013.4 hPa | 0 mm | - | - | - |
| 1777893000 | 22.22° C | 54% | 1013.5 hPa | 0 mm | - | - | - |
| 1777890004 | 20° C | 64% | 1014.1 hPa | 0 mm | - | - | - |
| 1777889400 | 19.44° C | 65% | 1014.1 hPa | 0 mm | - | - | - |
| 1777888200 | 18.33° C | 68% | 1014.3 hPa | 0 mm | - | - | - |
| 1777887600 | 17.78° C | 69% | 1014.3 hPa | 0 mm | - | - | - |
| 1777887000 | 17.78° C | 70% | 1014.4 hPa | 0 mm | - | - | - |
* Rain latest hour (hover to see other rain measurements)
** Current wind speed in m/s (hover to see current wind gust speed)